createdAt,value
2018-07-10T00:00:16.804Z,2.13
2018-07-10T00:08:44.943Z,2.07
2018-07-10T00:14:48.236Z,1.83
2018-07-10T00:20:51.832Z,1.30
2018-07-10T00:26:55.132Z,1.63
2018-07-10T00:32:58.783Z,1.50
2018-07-10T00:39:06.762Z,1.30
2018-07-10T00:45:10.162Z,1.50
2018-07-10T00:51:14.330Z,1.60
2018-07-10T00:57:17.863Z,1.53
2018-07-10T01:03:22.484Z,1.60
2018-07-10T01:09:26.154Z,1.80
2018-07-10T01:15:29.546Z,1.57
2018-07-10T01:21:32.929Z,2.03
2018-07-10T01:27:37.569Z,1.50
2018-07-10T01:33:41.088Z,1.70
2018-07-10T01:39:44.502Z,1.80
2018-07-10T01:45:48.452Z,2.00
2018-07-10T01:51:52.062Z,2.20
2018-07-10T01:57:56.919Z,2.27
2018-07-10T02:04:00.967Z,2.43
2018-07-10T02:10:04.570Z,1.90
2018-07-10T02:16:08.030Z,1.80
2018-07-10T02:22:11.538Z,1.97
2018-07-10T02:28:15.015Z,1.80
2018-07-10T02:34:18.877Z,1.83
2018-07-10T02:40:22.368Z,2.30
2018-07-10T02:46:27.193Z,2.20
2018-07-10T02:52:39.740Z,2.40
2018-07-10T02:58:43.435Z,1.87
2018-07-10T03:04:47.655Z,2.27
2018-07-10T03:10:51.216Z,2.70
2018-07-10T03:16:54.618Z,2.83
2018-07-10T03:22:58.365Z,3.03
2018-07-10T03:29:02.046Z,2.60
2018-07-10T03:35:06.246Z,2.50
2018-07-10T03:41:09.954Z,2.80
2018-07-10T03:47:17.053Z,2.07
2018-07-10T03:53:21.488Z,2.27
2018-07-10T03:59:25.064Z,2.10
2018-07-10T04:05:28.662Z,2.93
2018-07-10T04:11:32.939Z,3.10
2018-07-10T04:17:45.659Z,2.90
2018-07-10T04:24:08.895Z,2.60
2018-07-10T04:30:21.305Z,1.97
2018-07-10T04:36:24.973Z,2.27
2018-07-10T04:42:31.869Z,3.30
2018-07-10T04:48:40.987Z,3.27
2018-07-10T04:55:01.174Z,2.53
2018-07-10T05:01:04.624Z,2.10
2018-07-10T05:07:09.935Z,1.80
2018-07-10T05:13:13.409Z,1.67
2018-07-10T05:19:16.942Z,1.80
2018-07-10T05:25:20.622Z,1.20
2018-07-10T05:31:24.442Z,1.50
2018-07-10T05:37:34.167Z,1.40
2018-07-10T05:43:46.498Z,1.33
2018-07-10T05:49:49.990Z,1.70
2018-07-10T05:55:53.902Z,2.03
2018-07-10T06:01:57.618Z,1.70
2018-07-10T06:08:01.430Z,2.03
2018-07-10T06:14:04.846Z,1.67
2018-07-10T06:20:08.480Z,1.67
2018-07-10T06:26:13.381Z,2.03
2018-07-10T06:32:21.230Z,1.70
2018-07-10T06:38:24.715Z,1.60
2018-07-10T06:44:28.344Z,1.50
2018-07-10T06:50:33.987Z,1.40
2018-07-10T06:56:37.892Z,2.20
2018-07-10T07:02:41.461Z,1.47
2018-07-10T07:08:45.086Z,1.70
2018-07-10T07:14:49.019Z,1.90
2018-07-10T07:20:52.673Z,1.87
2018-07-10T07:26:56.296Z,1.50
2018-07-10T07:33:00.412Z,1.70
2018-07-10T07:39:04.953Z,2.03
2018-07-10T07:45:08.877Z,1.53
2018-07-10T07:51:12.499Z,1.57
2018-07-10T07:57:16.858Z,2.17
2018-07-10T08:03:21.051Z,1.70
2018-07-10T08:09:24.844Z,1.70
2018-07-10T08:15:28.285Z,1.80
2018-07-10T08:21:32.403Z,1.67
2018-07-10T08:27:37.518Z,1.50
2018-07-10T08:33:41.258Z,1.50
2018-07-10T08:39:45.294Z,1.53
2018-07-10T08:45:49.582Z,2.13
2018-07-10T08:51:53.890Z,2.33
2018-07-10T08:57:57.709Z,1.90
2018-07-10T09:04:01.524Z,1.87
2018-07-10T09:10:05.031Z,2.00
2018-07-10T09:16:08.788Z,1.87
2018-07-10T09:22:13.100Z,2.37
2018-07-10T09:28:17.114Z,1.63
2018-07-10T09:34:20.832Z,2.10
2018-07-10T09:40:24.631Z,2.07
2018-07-10T09:46:29.950Z,2.00
2018-07-10T09:52:33.588Z,2.50
2018-07-10T09:58:37.551Z,2.17
2018-07-10T10:04:41.244Z,2.43
2018-07-10T10:10:45.073Z,1.80
2018-07-10T10:16:48.608Z,2.30
2018-07-10T10:22:52.364Z,2.47
2018-07-10T10:28:56.228Z,2.33
2018-07-10T10:35:00.262Z,2.30
2018-07-10T10:41:03.898Z,2.50
2018-07-10T10:47:08.008Z,2.67
2018-07-10T10:53:11.798Z,3.37
2018-07-10T10:59:15.497Z,3.67
2018-07-10T11:05:19.482Z,3.27
2018-07-10T11:11:23.073Z,3.93
2018-07-10T11:17:31.116Z,3.30
2018-07-10T11:23:53.407Z,4.63
2018-07-10T11:29:57.590Z,3.40
2018-07-10T11:36:01.461Z,3.07
2018-07-10T11:42:05.443Z,3.57
2018-07-10T11:48:09.690Z,19.97
2018-07-10T11:54:14.033Z,3.20
2018-07-10T12:00:18.812Z,3.60
2018-07-10T12:06:22.591Z,3.33
2018-07-10T12:12:26.234Z,3.70
2018-07-10T12:18:29.803Z,3.10
2018-07-10T12:24:33.408Z,3.23
2018-07-10T12:30:36.968Z,3.23
2018-07-10T12:36:40.540Z,3.43
2018-07-10T12:42:44.068Z,3.93
2018-07-10T12:48:47.782Z,4.07
2018-07-10T12:54:51.427Z,5.07
2018-07-10T13:00:55.673Z,4.13
2018-07-10T13:06:59.398Z,4.70
2018-07-10T13:13:03.346Z,4.90
2018-07-10T13:19:06.928Z,5.00
2018-07-10T13:25:10.577Z,4.80
2018-07-10T13:31:13.905Z,4.47
2018-07-10T13:37:21.934Z,5.05
2018-07-10T13:43:25.595Z,4.90
2018-07-10T13:49:29.374Z,5.33
2018-07-10T13:55:33.127Z,5.85
2018-07-10T14:01:39.582Z,5.30
2018-07-10T14:07:43.106Z,5.00
2018-07-10T14:13:46.790Z,5.55
2018-07-10T14:19:51.346Z,6.80
2018-07-10T14:25:55.130Z,8.33
2018-07-10T14:31:58.884Z,7.25
2018-07-10T14:38:05.761Z,6.20
2018-07-10T14:44:11.055Z,5.78
2018-07-10T14:50:14.703Z,6.50
2018-07-10T14:56:18.692Z,6.30
2018-07-10T15:02:22.259Z,6.17
2018-07-10T15:08:26.156Z,6.90
2018-07-10T15:14:29.935Z,6.87
2018-07-10T15:20:33.574Z,6.25
2018-07-10T15:26:38.178Z,7.20
2018-07-10T15:32:41.820Z,7.33
2018-07-10T15:38:46.457Z,7.50
2018-07-10T15:44:49.950Z,5.70
2018-07-10T15:50:53.431Z,5.28
2018-07-10T15:56:57.342Z,5.40
2018-07-10T16:03:01.260Z,5.12
2018-07-10T16:09:22.324Z,6.22
2018-07-10T16:15:26.295Z,6.83
2018-07-10T16:22:00.925Z,6.90
2018-07-10T16:28:39.154Z,6.87
2018-07-10T16:34:46.374Z,7.85
2018-07-10T16:40:50.367Z,5.97
2018-07-10T16:47:08.706Z,5.28
2018-07-10T16:53:14.623Z,5.15
2018-07-10T16:59:18.199Z,4.30
2018-07-10T17:05:22.582Z,4.17
2018-07-10T17:11:26.206Z,4.30
2018-07-10T17:17:30.016Z,4.70
2018-07-10T17:23:34.009Z,5.08
2018-07-10T17:29:37.493Z,13.88
2018-07-10T17:35:41.066Z,5.10
2018-07-10T17:41:46.145Z,2.05
2018-07-10T17:54:01.720Z,1.75
2018-07-10T18:00:05.970Z,2.10
2018-07-10T18:06:09.418Z,2.00
2018-07-10T18:12:13.028Z,1.80
2018-07-10T18:18:16.470Z,2.00
2018-07-10T18:24:20.675Z,2.33
2018-07-10T18:30:24.143Z,2.47
2018-07-10T18:36:28.225Z,2.90
2018-07-10T18:42:32.502Z,3.13
2018-07-10T18:48:36.991Z,3.00
2018-07-10T18:54:47.805Z,3.10
2018-07-10T19:01:05.648Z,3.40
2018-07-10T19:07:09.189Z,2.80
2018-07-10T19:13:14.910Z,2.63
2018-07-10T19:19:18.617Z,2.83
2018-07-10T19:25:23.805Z,2.90
2018-07-10T19:31:31.668Z,2.57
2018-07-10T19:37:38.160Z,2.30
2018-07-10T19:43:41.899Z,1.53
2018-07-10T19:49:49.333Z,1.30
2018-07-10T19:55:52.920Z,1.10
2018-07-10T20:01:58.538Z,1.30
2018-07-10T20:08:09.636Z,0.90
2018-07-10T20:14:17.096Z,1.20
2018-07-10T20:20:24.728Z,1.27
2018-07-10T20:26:40.704Z,0.93
2018-07-10T20:33:18.516Z,1.10
2018-07-10T20:39:34.980Z,1.10
2018-07-10T20:45:45.876Z,1.30
2018-07-10T20:52:06.664Z,1.23
2018-07-10T20:58:15.777Z,1.13
2018-07-10T21:04:34.809Z,0.90
2018-07-10T21:10:43.792Z,0.90
2018-07-10T21:17:04.293Z,1.20
2018-07-10T21:23:19.511Z,1.00
2018-07-10T21:29:51.497Z,1.10
2018-07-10T21:36:04.091Z,1.20
2018-07-10T21:42:28.715Z,1.17
2018-07-10T21:51:02.278Z,1.17
2018-07-10T21:57:06.823Z,0.90
2018-07-10T22:03:11.406Z,1.40
2018-07-10T22:09:15.796Z,1.20
2018-07-10T22:15:20.084Z,1.30
2018-07-10T22:21:23.615Z,1.20
2018-07-10T22:27:26.960Z,1.17
2018-07-10T22:33:30.528Z,1.20
2018-07-10T22:39:33.969Z,1.40
2018-07-10T22:45:38.365Z,1.07
2018-07-10T22:51:41.831Z,1.23
2018-07-10T22:57:51.030Z,1.37
2018-07-10T23:03:55.107Z,1.40
2018-07-10T23:09:58.616Z,1.33
2018-07-10T23:16:02.252Z,1.40
2018-07-10T23:22:06.187Z,1.47
2018-07-10T23:28:10.376Z,1.53
2018-07-10T23:34:17.391Z,1.50
2018-07-10T23:40:22.337Z,1.70
2018-07-10T23:46:40.179Z,2.00
2018-07-10T23:52:57.161Z,1.93
2018-07-10T23:59:00.614Z,2.60
